sensor_id;sensor_type;location;lat;lon;timestamp;pressure;altitude;pressure_sealevel;temperature;humidity
5651;BME280;40241;52.684;9.758;2022-11-15T00:01:09;100905.31;;;10.61;63.94
5651;BME280;40241;52.684;9.758;2022-11-15T00:03:36;100907.03;;;10.59;63.87
5651;BME280;40241;52.684;9.758;2022-11-15T00:06:03;100907.53;;;10.57;63.82
5651;BME280;40241;52.684;9.758;2022-11-15T00:08:31;100904.78;;;10.57;63.92
5651;BME280;40241;52.684;9.758;2022-11-15T00:10:57;100903.25;;;10.56;63.92
5651;BME280;40241;52.684;9.758;2022-11-15T00:13:23;100908.25;;;10.57;63.79
5651;BME280;40241;52.684;9.758;2022-11-15T00:15:49;100903.25;;;10.56;63.87
5651;BME280;40241;52.684;9.758;2022-11-15T00:18:15;100919.25;;;10.57;63.86
5651;BME280;40241;52.684;9.758;2022-11-15T00:20:40;100913.22;;;10.53;63.75
5651;BME280;40241;52.684;9.758;2022-11-15T00:23:06;100904.19;;;10.53;63.79
5651;BME280;40241;52.684;9.758;2022-11-15T00:25:32;100902.72;;;10.52;63.89
5651;BME280;40241;52.684;9.758;2022-11-15T00:27:59;100898.66;;;10.47;63.74
5651;BME280;40241;52.684;9.758;2022-11-15T00:30:25;100909.59;;;10.42;63.67
5651;BME280;40241;52.684;9.758;2022-11-15T00:32:51;100902.53;;;10.35;63.59
5651;BME280;40241;52.684;9.758;2022-11-15T00:35:17;100899.25;;;10.31;63.55
5651;BME280;40241;52.684;9.758;2022-11-15T00:37:43;100891.41;;;10.24;63.65
5651;BME280;40241;52.684;9.758;2022-11-15T00:40:10;100896.38;;;10.20;63.65
5651;BME280;40241;52.684;9.758;2022-11-15T00:42:35;100908.06;;;10.15;63.54
5651;BME280;40241;52.684;9.758;2022-11-15T00:45:01;100908.72;;;10.10;63.63
5651;BME280;40241;52.684;9.758;2022-11-15T00:47:27;100891.69;;;10.06;63.67
5651;BME280;40241;52.684;9.758;2022-11-15T00:49:52;100895.66;;;10.05;63.61
5651;BME280;40241;52.684;9.758;2022-11-15T00:52:18;100892.88;;;10.00;63.60
5651;BME280;40241;52.684;9.758;2022-11-15T00:54:43;100910.84;;;10.01;63.52
5651;BME280;40241;52.684;9.758;2022-11-15T00:57:09;100879.13;;;10.00;63.61
5651;BME280;40241;52.684;9.758;2022-11-15T00:59:34;100889.31;;;9.94;63.66
5651;BME280;40241;52.684;9.758;2022-11-15T01:02:00;100881.25;;;9.90;63.59
5651;BME280;40241;52.684;9.758;2022-11-15T01:04:26;100884.22;;;9.87;63.53
5651;BME280;40241;52.684;9.758;2022-11-15T01:06:51;100881.94;;;9.85;63.57
5651;BME280;40241;52.684;9.758;2022-11-15T01:09:17;100873.63;;;9.79;63.47
5651;BME280;40241;52.684;9.758;2022-11-15T01:11:42;100877.13;;;9.80;63.46
5651;BME280;40241;52.684;9.758;2022-11-15T01:14:08;100898.84;;;9.78;63.50
5651;BME280;40241;52.684;9.758;2022-11-15T01:16:33;100892.03;;;9.73;63.54
5651;BME280;40241;52.684;9.758;2022-11-15T01:18:59;100893.22;;;9.67;63.40
5651;BME280;40241;52.684;9.758;2022-11-15T01:21:25;100894.16;;;9.64;63.69
5651;BME280;40241;52.684;9.758;2022-11-15T01:23:54;100885.38;;;9.60;63.60
5651;BME280;40241;52.684;9.758;2022-11-15T01:26:20;100884.81;;;9.56;63.53
5651;BME280;40241;52.684;9.758;2022-11-15T01:28:46;100890.97;;;9.51;63.71
5651;BME280;40241;52.684;9.758;2022-11-15T01:31:17;100891.75;;;9.51;63.56
5651;BME280;40241;52.684;9.758;2022-11-15T01:33:43;100888.72;;;9.49;63.55
5651;BME280;40241;52.684;9.758;2022-11-15T01:36:15;100875.66;;;9.44;63.70
5651;BME280;40241;52.684;9.758;2022-11-15T01:38:41;100870.44;;;9.46;63.59
5651;BME280;40241;52.684;9.758;2022-11-15T01:41:16;100870.28;;;9.50;63.65
5651;BME280;40241;52.684;9.758;2022-11-15T01:43:42;100865.78;;;9.52;63.71
5651;BME280;40241;52.684;9.758;2022-11-15T01:46:30;100871.84;;;9.56;63.79
5651;BME280;40241;52.684;9.758;2022-11-15T01:49:00;100867.09;;;9.57;63.98
5651;BME280;40241;52.684;9.758;2022-11-15T01:51:29;100864.22;;;9.66;63.71
5651;BME280;40241;52.684;9.758;2022-11-15T01:53:58;100860.31;;;9.72;63.82
5651;BME280;40241;52.684;9.758;2022-11-15T01:56:30;100856.88;;;9.77;63.78
5651;BME280;40241;52.684;9.758;2022-11-15T01:59:00;100846.38;;;9.76;63.58
5651;BME280;40241;52.684;9.758;2022-11-15T02:01:28;100852.59;;;9.76;63.77
5651;BME280;40241;52.684;9.758;2022-11-15T02:03:59;100840.72;;;9.85;63.93
5651;BME280;40241;52.684;9.758;2022-11-15T02:06:26;100847.47;;;9.84;63.78
5651;BME280;40241;52.684;9.758;2022-11-15T02:08:51;100834.00;;;9.86;63.92
5651;BME280;40241;52.684;9.758;2022-11-15T02:11:17;100825.25;;;9.88;63.78
5651;BME280;40241;52.684;9.758;2022-11-15T02:13:43;100817.50;;;9.86;63.93
5651;BME280;40241;52.684;9.758;2022-11-15T02:30:44;100818.38;;;9.98;64.82
5651;BME280;40241;52.684;9.758;2022-11-15T02:36:04;100825.91;;;10.03;64.55
5651;BME280;40241;52.684;9.758;2022-11-15T02:41:06;100806.00;;;10.08;64.31
5651;BME280;40241;52.684;9.758;2022-11-15T02:43:40;100810.56;;;10.11;64.51
5651;BME280;40241;52.684;9.758;2022-11-15T02:49:15;100809.56;;;10.14;64.34
5651;BME280;40241;52.684;9.758;2022-11-15T02:51:43;100804.16;;;10.19;64.46
5651;BME280;40241;52.684;9.758;2022-11-15T02:54:19;100800.22;;;10.26;64.52
5651;BME280;40241;52.684;9.758;2022-11-15T02:56:46;100796.47;;;10.29;64.43
5651;BME280;40241;52.684;9.758;2022-11-15T03:04:53;100792.06;;;10.37;64.92
5651;BME280;40241;52.684;9.758;2022-11-15T03:10:35;100781.59;;;10.41;65.16
5651;BME280;40241;52.684;9.758;2022-11-15T03:13:27;100786.38;;;10.46;64.59
5651;BME280;40241;52.684;9.758;2022-11-15T03:16:04;100793.91;;;10.51;64.68
5651;BME280;40241;52.684;9.758;2022-11-15T03:18:37;100785.44;;;10.54;64.66
5651;BME280;40241;52.684;9.758;2022-11-15T03:21:08;100781.72;;;10.57;64.54
5651;BME280;40241;52.684;9.758;2022-11-15T03:23:35;100778.50;;;10.59;64.69
5651;BME280;40241;52.684;9.758;2022-11-15T03:26:05;100781.50;;;10.61;64.62
5651;BME280;40241;52.684;9.758;2022-11-15T03:28:42;100786.78;;;10.65;64.84
5651;BME280;40241;52.684;9.758;2022-11-15T03:31:12;100778.78;;;10.67;64.69
5651;BME280;40241;52.684;9.758;2022-11-15T03:33:59;100786.53;;;10.68;64.89
5651;BME280;40241;52.684;9.758;2022-11-15T03:36:26;100780.31;;;10.73;64.82
5651;BME280;40241;52.684;9.758;2022-11-15T03:38:54;100788.38;;;10.77;64.69
5651;BME280;40241;52.684;9.758;2022-11-15T03:41:46;100810.09;;;10.75;65.27
5651;BME280;40241;52.684;9.758;2022-11-15T03:44:45;100789.91;;;10.83;64.83
5651;BME280;40241;52.684;9.758;2022-11-15T03:47:11;100788.91;;;10.86;64.73
5651;BME280;40241;52.684;9.758;2022-11-15T03:49:42;100781.69;;;10.89;64.79
5651;BME280;40241;52.684;9.758;2022-11-15T03:52:10;100795.44;;;10.89;64.68
5651;BME280;40241;52.684;9.758;2022-11-15T03:54:36;100779.44;;;10.93;64.67
5651;BME280;40241;52.684;9.758;2022-11-15T03:57:02;100785.47;;;10.97;64.93
5651;BME280;40241;52.684;9.758;2022-11-15T03:59:27;100789.50;;;11.01;64.79
5651;BME280;40241;52.684;9.758;2022-11-15T04:01:53;100808.31;;;11.03;64.78
5651;BME280;40241;52.684;9.758;2022-11-15T04:04:18;100789.81;;;11.09;64.96
5651;BME280;40241;52.684;9.758;2022-11-15T04:06:44;100783.81;;;11.10;64.79
5651;BME280;40241;52.684;9.758;2022-11-15T04:09:09;100778.81;;;11.14;64.75
5651;BME280;40241;52.684;9.758;2022-11-15T04:11:35;100777.09;;;11.17;64.58
5651;BME280;40241;52.684;9.758;2022-11-15T04:14:00;100775.34;;;11.19;64.73
5651;BME280;40241;52.684;9.758;2022-11-15T04:16:26;100773.63;;;11.22;64.67
5651;BME280;40241;52.684;9.758;2022-11-15T04:18:51;100774.13;;;11.26;64.62
5651;BME280;40241;52.684;9.758;2022-11-15T04:21:37;100779.63;;;11.26;64.85
5651;BME280;40241;52.684;9.758;2022-11-15T04:24:21;100774.13;;;11.26;64.78
5651;BME280;40241;52.684;9.758;2022-11-15T04:26:46;100779.13;;;11.27;64.60
5651;BME280;40241;52.684;9.758;2022-11-15T04:29:12;100764.13;;;11.28;64.86
5651;BME280;40241;52.684;9.758;2022-11-15T04:31:56;100762.13;;;11.29;64.91
5651;BME280;40241;52.684;9.758;2022-11-15T04:34:21;100780.16;;;11.30;64.82
5651;BME280;40241;52.684;9.758;2022-11-15T04:36:47;100768.88;;;11.28;64.80
5651;BME280;40241;52.684;9.758;2022-11-15T04:39:31;100773.41;;;11.31;64.88
5651;BME280;40241;52.684;9.758;2022-11-15T04:41:56;100781.69;;;11.31;64.76
5651;BME280;40241;52.684;9.758;2022-11-15T04:44:22;100775.16;;;11.34;64.88
5651;BME280;40241;52.684;9.758;2022-11-15T04:46:47;100772.66;;;11.36;64.94
5651;BME280;40241;52.684;9.758;2022-11-15T04:49:13;100761.66;;;11.36;64.79
5651;BME280;40241;52.684;9.758;2022-11-15T04:51:38;100798.47;;;11.39;64.99
5651;BME280;40241;52.684;9.758;2022-11-15T04:54:04;100775.94;;;11.40;64.82
5651;BME280;40241;52.684;9.758;2022-11-15T04:56:29;100775.94;;;11.40;64.76
5651;BME280;40241;52.684;9.758;2022-11-15T04:58:55;100767.44;;;11.44;64.86
5651;BME280;40241;52.684;9.758;2022-11-15T05:01:20;100785.47;;;11.45;64.86
5651;BME280;40241;52.684;9.758;2022-11-15T05:03:46;100778.22;;;11.47;64.79
5651;BME280;40241;52.684;9.758;2022-11-15T05:06:30;100774.72;;;11.47;64.96
5651;BME280;40241;52.684;9.758;2022-11-15T05:08:56;100788.25;;;11.50;64.87
5651;BME280;40241;52.684;9.758;2022-11-15T05:11:22;100784.50;;;11.53;64.91
5651;BME280;40241;52.684;9.758;2022-11-15T05:13:48;100786.28;;;11.56;65.02
5651;BME280;40241;52.684;9.758;2022-11-15T05:16:14;100788.81;;;11.60;64.72
5651;BME280;40241;52.684;9.758;2022-11-15T05:18:39;100788.56;;;11.63;64.92
5651;BME280;40241;52.684;9.758;2022-11-15T05:21:10;100779.31;;;11.66;64.84
5651;BME280;40241;52.684;9.758;2022-11-15T05:23:36;100782.06;;;11.66;64.93
5651;BME280;40241;52.684;9.758;2022-11-15T05:26:03;100793.38;;;11.68;64.74
5651;BME280;40241;52.684;9.758;2022-11-15T05:28:30;100783.84;;;11.69;64.76
5651;BME280;40241;52.684;9.758;2022-11-15T05:31:02;100788.13;;;11.70;64.88
5651;BME280;40241;52.684;9.758;2022-11-15T05:33:28;100782.34;;;11.68;64.63
5651;BME280;40241;52.684;9.758;2022-11-15T05:36:01;100787.88;;;11.68;64.85
5651;BME280;40241;52.684;9.758;2022-11-15T05:38:28;100788.59;;;11.69;64.99
5651;BME280;40241;52.684;9.758;2022-11-15T05:40:54;100793.13;;;11.72;64.78
5651;BME280;40241;52.684;9.758;2022-11-15T05:43:20;100781.59;;;11.73;64.80
5651;BME280;40241;52.684;9.758;2022-11-15T05:45:46;100793.13;;;11.72;64.77
5651;BME280;40241;52.684;9.758;2022-11-15T05:48:12;100784.34;;;11.73;64.75
5651;BME280;40241;52.684;9.758;2022-11-15T05:50:41;100798.63;;;11.77;64.73
5651;BME280;40241;52.684;9.758;2022-11-15T05:53:10;100787.38;;;11.75;64.90
5651;BME280;40241;52.684;9.758;2022-11-15T05:55:37;100784.88;;;11.77;64.82
5651;BME280;40241;52.684;9.758;2022-11-15T05:58:04;100788.38;;;11.78;64.88
5651;BME280;40241;52.684;9.758;2022-11-15T06:00:29;100788.38;;;11.78;64.82
5651;BME280;40241;52.684;9.758;2022-11-15T06:02:55;100786.38;;;11.78;64.84
5651;BME280;40241;52.684;9.758;2022-11-15T06:05:20;100779.13;;;11.81;64.72
5651;BME280;40241;52.684;9.758;2022-11-15T06:07:46;100784.88;;;11.77;64.96
5651;BME280;40241;52.684;9.758;2022-11-15T06:10:11;100795.91;;;11.83;64.94
5651;BME280;40241;52.684;9.758;2022-11-15T06:12:37;100796.69;;;11.83;64.85
5651;BME280;40241;52.684;9.758;2022-11-15T06:15:03;100789.91;;;11.84;64.88
5651;BME280;40241;52.684;9.758;2022-11-15T06:17:28;100794.66;;;11.84;64.90
5651;BME280;40241;52.684;9.758;2022-11-15T06:19:54;100793.66;;;11.81;64.82
5651;BME280;40241;52.684;9.758;2022-11-15T06:22:19;100789.66;;;11.82;64.75
5651;BME280;40241;52.684;9.758;2022-11-15T06:24:45;100798.69;;;11.83;64.94
5651;BME280;40241;52.684;9.758;2022-11-15T06:27:11;100804.94;;;11.83;64.79
5651;BME280;40241;52.684;9.758;2022-11-15T06:29:36;100799.44;;;11.83;64.72
5651;BME280;40241;52.684;9.758;2022-11-15T06:32:02;100804.44;;;11.85;64.84
5651;BME280;40241;52.684;9.758;2022-11-15T06:34:28;100791.66;;;11.87;65.01
5651;BME280;40241;52.684;9.758;2022-11-15T06:36:53;100799.94;;;11.87;64.85
5651;BME280;40241;52.684;9.758;2022-11-15T06:39:19;100806.94;;;11.88;64.94
5651;BME280;40241;52.684;9.758;2022-11-15T06:41:44;100797.44;;;11.89;64.79
5651;BME280;40241;52.684;9.758;2022-11-15T06:44:10;100798.94;;;11.90;64.82
5651;BME280;40241;52.684;9.758;2022-11-15T06:46:35;100807.19;;;11.90;64.83
5651;BME280;40241;52.684;9.758;2022-11-15T06:49:01;100789.94;;;11.95;65.09
5651;BME280;40241;52.684;9.758;2022-11-15T06:51:26;100809.47;;;11.97;64.71
5651;BME280;40241;52.684;9.758;2022-11-15T06:53:51;100792.97;;;12.03;64.90
5651;BME280;40241;52.684;9.758;2022-11-15T06:56:17;100800.22;;;12.06;64.76
5651;BME280;40241;52.684;9.758;2022-11-15T06:58:42;100801.50;;;12.11;64.90
5651;BME280;40241;52.684;9.758;2022-11-15T07:01:10;100801.25;;;12.14;64.84
5651;BME280;40241;52.684;9.758;2022-11-15T07:03:40;100798.00;;;12.16;64.88
5651;BME280;40241;52.684;9.758;2022-11-15T07:06:07;100797.22;;;12.15;64.74
5651;BME280;40241;52.684;9.758;2022-11-15T07:08:34;100795.75;;;12.14;64.79
5651;BME280;40241;52.684;9.758;2022-11-15T07:11:02;100810.78;;;12.13;64.88
5651;BME280;40241;52.684;9.758;2022-11-15T07:13:29;100798.22;;;12.07;64.83
5651;BME280;40241;52.684;9.758;2022-11-15T07:15:55;100805.75;;;12.06;64.93
5651;BME280;40241;52.684;9.758;2022-11-15T07:18:21;100809.50;;;12.09;65.17
5651;BME280;40241;52.684;9.758;2022-11-15T07:20:48;100805.50;;;12.10;65.06
5651;BME280;40241;52.684;9.758;2022-11-15T07:23:13;100807.25;;;12.13;65.07
5651;BME280;40241;52.684;9.758;2022-11-15T07:25:39;100808.78;;;12.14;64.89
5651;BME280;40241;52.684;9.758;2022-11-15T07:28:04;100806.53;;;12.18;65.10
5651;BME280;40241;52.684;9.758;2022-11-15T07:30:30;100804.78;;;12.20;65.04
5651;BME280;40241;52.684;9.758;2022-11-15T07:32:57;100804.00;;;12.20;65.08
5651;BME280;40241;52.684;9.758;2022-11-15T07:35:24;100807.78;;;12.22;64.87
5651;BME280;40241;52.684;9.758;2022-11-15T07:37:54;100799.50;;;12.22;65.07
5651;BME280;40241;52.684;9.758;2022-11-15T07:40:20;100802.53;;;12.19;64.91
5651;BME280;40241;52.684;9.758;2022-11-15T07:42:46;100798.25;;;12.18;64.86
5651;BME280;40241;52.684;9.758;2022-11-15T07:45:17;100797.25;;;12.21;64.88
5651;BME280;40241;52.684;9.758;2022-11-15T07:47:47;100800.00;;;12.21;64.74
5651;BME280;40241;52.684;9.758;2022-11-15T07:50:12;100801.00;;;12.18;64.88
5651;BME280;40241;52.684;9.758;2022-11-15T07:52:38;100790.97;;;12.15;64.87
5651;BME280;40241;52.684;9.758;2022-11-15T07:55:04;100787.22;;;12.12;64.83
5651;BME280;40241;52.684;9.758;2022-11-15T07:57:29;100793.47;;;12.13;64.91
5651;BME280;40241;52.684;9.758;2022-11-15T07:59:55;100774.69;;;12.06;64.79
5651;BME280;40241;52.684;9.758;2022-11-15T08:02:20;100803.22;;;12.08;65.04
5651;BME280;40241;52.684;9.758;2022-11-15T08:04:46;100802.50;;;12.08;64.86
5651;BME280;40241;52.684;9.758;2022-11-15T08:07:12;100796.97;;;12.02;64.96
5651;BME280;40241;52.684;9.758;2022-11-15T08:09:37;100797.72;;;12.02;64.98
5651;BME280;40241;52.684;9.758;2022-11-15T08:12:03;100791.94;;;11.95;64.93
5651;BME280;40241;52.684;9.758;2022-11-15T08:14:28;100799.72;;;11.96;65.10
5651;BME280;40241;52.684;9.758;2022-11-15T08:16:56;100803.47;;;11.93;64.92
5651;BME280;40241;52.684;9.758;2022-11-15T08:19:22;100810.25;;;11.92;65.05
5651;BME280;40241;52.684;9.758;2022-11-15T08:21:48;100805.97;;;11.91;65.11
5651;BME280;40241;52.684;9.758;2022-11-15T08:24:14;100800.97;;;11.95;65.32
5651;BME280;40241;52.684;9.758;2022-11-15T08:26:39;100806.47;;;11.95;65.14
5651;BME280;40241;52.684;9.758;2022-11-15T08:29:06;100805.50;;;11.98;65.30
5651;BME280;40241;52.684;9.758;2022-11-15T08:31:35;100802.00;;;12.09;65.32
5651;BME280;40241;52.684;9.758;2022-11-15T08:34:02;100805.75;;;12.17;65.29
5651;BME280;40241;52.684;9.758;2022-11-15T08:36:28;100806.03;;;12.30;65.15
5651;BME280;40241;52.684;9.758;2022-11-15T08:38:53;100809.06;;;12.38;65.31
5651;BME280;40241;52.684;9.758;2022-11-15T08:41:35;100835.91;;;12.48;65.18
5651;BME280;40241;52.684;9.758;2022-11-15T08:44:02;100797.50;;;12.56;65.29
5651;BME280;40241;52.684;9.758;2022-11-15T08:46:27;100810.81;;;12.68;65.18
5651;BME280;40241;52.684;9.758;2022-11-15T08:48:53;100816.56;;;12.76;65.13
5651;BME280;40241;52.684;9.758;2022-11-15T08:51:18;100817.59;;;12.84;65.09
5651;BME280;40241;52.684;9.758;2022-11-15T08:53:44;100806.00;;;12.91;64.88
5651;BME280;40241;52.684;9.758;2022-11-15T08:56:13;100795.72;;;12.97;65.04
5651;BME280;40241;52.684;9.758;2022-11-15T08:58:41;100796.97;;;13.07;65.13
5651;BME280;40241;52.684;9.758;2022-11-15T09:01:15;100803.25;;;13.19;65.12
5651;BME280;40241;52.684;9.758;2022-11-15T09:03:41;100816.25;;;13.24;64.90
5651;BME280;40241;52.684;9.758;2022-11-15T09:06:06;100798.16;;;13.34;64.96
5651;BME280;40241;52.684;9.758;2022-11-15T09:08:32;100808.94;;;13.37;64.89
5651;BME280;40241;52.684;9.758;2022-11-15T09:10:57;100817.72;;;13.41;65.14
5651;BME280;40241;52.684;9.758;2022-11-15T09:13:22;100823.25;;;13.47;64.96
5651;BME280;40241;52.684;9.758;2022-11-15T09:15:48;100801.59;;;13.57;65.22
5651;BME280;40241;52.684;9.758;2022-11-15T09:18:13;100803.28;;;13.65;64.96
5651;BME280;40241;52.684;9.758;2022-11-15T09:20:39;100800.75;;;13.73;64.94
5651;BME280;40241;52.684;9.758;2022-11-15T09:23:05;100796.94;;;13.81;64.68
5651;BME280;40241;52.684;9.758;2022-11-15T09:25:31;100801.19;;;13.88;64.82
5651;BME280;40241;52.684;9.758;2022-11-15T09:27:56;100791.06;;;13.96;64.71
5651;BME280;40241;52.684;9.758;2022-11-15T09:30:23;100794.75;;;14.09;64.68
5651;BME280;40241;52.684;9.758;2022-11-15T09:32:49;100785.38;;;14.23;64.51
5651;BME280;40241;52.684;9.758;2022-11-15T09:35:15;100794.56;;;14.43;64.39
5651;BME280;40241;52.684;9.758;2022-11-15T09:37:40;100780.09;;;14.55;64.26
5651;BME280;40241;52.684;9.758;2022-11-15T09:40:12;100791.31;;;14.68;64.20
5651;BME280;40241;52.684;9.758;2022-11-15T09:42:57;100790.00;;;14.75;63.98
5651;BME280;40241;52.684;9.758;2022-11-15T09:45:36;100778.34;;;14.82;63.82
5651;BME280;40241;52.684;9.758;2022-11-15T09:50:45;100791.34;;;14.92;63.81
5651;BME280;40241;52.684;9.758;2022-11-15T09:53:22;100783.25;;;14.94;63.86
5651;BME280;40241;52.684;9.758;2022-11-15T09:56:05;100785.22;;;14.99;63.70
5651;BME280;40241;52.684;9.758;2022-11-15T09:58:57;100784.19;;;15.02;63.54
5651;BME280;40241;52.684;9.758;2022-11-15T10:04:15;100788.66;;;15.11;63.87
5651;BME280;40241;52.684;9.758;2022-11-15T10:06:57;100774.94;;;15.19;63.73
5651;BME280;40241;52.684;9.758;2022-11-15T10:09:31;100778.16;;;15.23;63.69
5651;BME280;40241;52.684;9.758;2022-11-15T10:11:59;100778.88;;;15.29;63.72
5651;BME280;40241;52.684;9.758;2022-11-15T10:14:27;100764.63;;;15.38;63.71
5651;BME280;40241;52.684;9.758;2022-11-15T10:19:35;100759.19;;;15.51;63.61
5651;BME280;40241;52.684;9.758;2022-11-15T10:27:33;100757.78;;;15.82;63.17
5651;BME280;40241;52.684;9.758;2022-11-15T10:29:59;100760.41;;;15.93;63.11
5651;BME280;40241;52.684;9.758;2022-11-15T10:32:25;100759.25;;;16.01;62.90
5651;BME280;40241;52.684;9.758;2022-11-15T10:34:50;100745.75;;;16.11;62.80
5651;BME280;40241;52.684;9.758;2022-11-15T10:37:29;100750.16;;;16.19;62.15
5651;BME280;40241;52.684;9.758;2022-11-15T10:40:06;100743.78;;;16.24;62.08
5651;BME280;40241;52.684;9.758;2022-11-15T10:42:39;100756.41;;;16.38;62.32
5651;BME280;40241;52.684;9.758;2022-11-15T10:45:23;100743.63;;;16.48;61.73
5651;BME280;40241;52.684;9.758;2022-11-15T10:47:49;100754.34;;;16.58;62.06
5651;BME280;40241;52.684;9.758;2022-11-15T10:50:33;100740.91;;;16.75;61.32
5651;BME280;40241;52.684;9.758;2022-11-15T10:53:01;100741.97;;;16.85;61.57
5651;BME280;40241;52.684;9.758;2022-11-15T10:55:30;100743.91;;;16.90;61.65
5651;BME280;40241;52.684;9.758;2022-11-15T10:58:09;100727.88;;;16.96;60.99
5651;BME280;40241;52.684;9.758;2022-11-15T11:00:45;100728.00;;;17.03;61.30
5651;BME280;40241;52.684;9.758;2022-11-15T11:03:29;100726.59;;;17.10;59.84
5651;BME280;40241;52.684;9.758;2022-11-15T11:08:33;100737.47;;;17.34;61.00
5651;BME280;40241;52.684;9.758;2022-11-15T11:11:00;100734.44;;;17.45;60.64
5651;BME280;40241;52.684;9.758;2022-11-15T11:13:31;100724.63;;;17.57;60.27
5651;BME280;40241;52.684;9.758;2022-11-15T11:38:10;100699.66;;;18.68;58.46
5651;BME280;40241;52.684;9.758;2022-11-15T11:40:44;100698.69;;;18.94;58.14
5651;BME280;40241;52.684;9.758;2022-11-15T11:48:42;100701.06;;;19.61;57.25
5651;BME280;40241;52.684;9.758;2022-11-15T11:56:29;100674.66;;;19.70;56.14
5651;BME280;40241;52.684;9.758;2022-11-15T11:59:33;100673.69;;;19.60;54.71
5651;BME280;40241;52.684;9.758;2022-11-15T12:02:14;100679.06;;;19.58;55.77
5651;BME280;40241;52.684;9.758;2022-11-15T12:04:45;100674.06;;;19.56;56.64
5651;BME280;40241;52.684;9.758;2022-11-15T12:07:30;100669.22;;;19.57;55.08
5651;BME280;40241;52.684;9.758;2022-11-15T12:10:15;100655.63;;;19.53;55.74
5651;BME280;40241;52.684;9.758;2022-11-15T12:15:30;100659.50;;;19.42;56.52
5651;BME280;40241;52.684;9.758;2022-11-15T12:17:57;100658.22;;;19.43;56.59
5651;BME280;40241;52.684;9.758;2022-11-15T12:20:28;100662.88;;;19.49;56.37
5651;BME280;40241;52.684;9.758;2022-11-15T12:23:19;100652.47;;;19.57;56.00
5651;BME280;40241;52.684;9.758;2022-11-15T12:26:22;100650.22;;;19.48;55.77
5651;BME280;40241;52.684;9.758;2022-11-15T12:29:02;100647.22;;;19.38;55.14
5651;BME280;40241;52.684;9.758;2022-11-15T12:34:02;100660.56;;;19.32;56.47
5651;BME280;40241;52.684;9.758;2022-11-15T12:36:37;100650.91;;;19.33;55.27
5651;BME280;40241;52.684;9.758;2022-11-15T12:39:07;100649.59;;;19.34;56.19
5651;BME280;40241;52.684;9.758;2022-11-15T12:41:39;100659.06;;;19.31;56.40
5651;BME280;40241;52.684;9.758;2022-11-15T12:44:15;100645.53;;;19.35;55.49
5651;BME280;40241;52.684;9.758;2022-11-15T13:02:48;100621.06;;;19.86;54.88
5651;BME280;40241;52.684;9.758;2022-11-15T13:10:31;100599.28;;;19.92;53.49
5651;BME280;40241;52.684;9.758;2022-11-15T13:12:59;100600.19;;;20.10;54.81
5651;BME280;40241;52.684;9.758;2022-11-15T13:15:56;100600.78;;;20.24;53.00
5651;BME280;40241;52.684;9.758;2022-11-15T13:18:28;100595.19;;;20.31;54.42
5651;BME280;40241;52.684;9.758;2022-11-15T13:20:54;100594.03;;;20.34;54.05
5651;BME280;40241;52.684;9.758;2022-11-15T13:23:21;100598.34;;;20.35;53.64
5651;BME280;40241;52.684;9.758;2022-11-15T13:31:36;100584.53;;;20.37;52.19
5651;BME280;40241;52.684;9.758;2022-11-15T13:36:43;100583.63;;;20.35;53.73
5651;BME280;40241;52.684;9.758;2022-11-15T13:39:31;100581.53;;;20.43;51.87
5651;BME280;40241;52.684;9.758;2022-11-15T13:41:58;100597.03;;;20.44;53.14
5651;BME280;40241;52.684;9.758;2022-11-15T13:44:27;100591.03;;;20.47;53.12
5651;BME280;40241;52.684;9.758;2022-11-15T13:49:33;100579.84;;;20.55;52.85
5651;BME280;40241;52.684;9.758;2022-11-15T13:52:05;100569.38;;;20.55;52.13
5651;BME280;40241;52.684;9.758;2022-11-15T13:54:47;100577.78;;;20.55;51.89
5651;BME280;40241;52.684;9.758;2022-11-15T13:57:25;100564.72;;;20.58;51.93
5651;BME280;40241;52.684;9.758;2022-11-15T13:59:55;100564.94;;;20.52;52.32
5651;BME280;40241;52.684;9.758;2022-11-15T14:02:27;100561.97;;;20.50;52.12
5651;BME280;40241;52.684;9.758;2022-11-15T14:05:12;100569.44;;;20.48;52.55
5651;BME280;40241;52.684;9.758;2022-11-15T14:07:39;100562.72;;;20.43;52.73
5651;BME280;40241;52.684;9.758;2022-11-15T14:10:28;100559.94;;;20.36;50.24
5651;BME280;40241;52.684;9.758;2022-11-15T14:12:54;100564.63;;;20.26;52.69
5651;BME280;40241;52.684;9.758;2022-11-15T14:15:35;100561.28;;;20.12;51.22
5651;BME280;40241;52.684;9.758;2022-11-15T14:18:01;100562.59;;;20.03;52.92
5651;BME280;40241;52.684;9.758;2022-11-15T14:20:33;100560.34;;;19.94;52.47
5651;BME280;40241;52.684;9.758;2022-11-15T14:23:05;100558.69;;;19.84;52.56
5651;BME280;40241;52.684;9.758;2022-11-15T14:25:55;100554.22;;;19.73;52.15
5651;BME280;40241;52.684;9.758;2022-11-15T14:30:54;100551.25;;;19.49;53.26
5651;BME280;40241;52.684;9.758;2022-11-15T14:35:55;100548.22;;;19.24;53.22
5651;BME280;40241;52.684;9.758;2022-11-15T14:38:23;100565.13;;;19.11;53.58
5651;BME280;40241;52.684;9.758;2022-11-15T14:40:48;100562.28;;;19.03;53.83
5651;BME280;40241;52.684;9.758;2022-11-15T14:43:14;100557.41;;;18.89;53.76
5651;BME280;40241;52.684;9.758;2022-11-15T14:45:40;100554.41;;;18.79;53.96
5651;BME280;40241;52.684;9.758;2022-11-15T14:48:06;100550.66;;;18.69;53.93
5651;BME280;40241;52.684;9.758;2022-11-15T14:50:32;100542.81;;;18.60;53.78
5651;BME280;40241;52.684;9.758;2022-11-15T14:52:58;100541.63;;;18.48;54.06
5651;BME280;40241;52.684;9.758;2022-11-15T14:55:26;100550.50;;;18.39;54.15
5651;BME280;40241;52.684;9.758;2022-11-15T14:57:57;100549.09;;;18.25;54.19
5651;BME280;40241;52.684;9.758;2022-11-15T15:00:23;100540.72;;;18.17;54.12
5651;BME280;40241;52.684;9.758;2022-11-15T15:02:52;100543.03;;;18.06;54.14
5651;BME280;40241;52.684;9.758;2022-11-15T15:05:27;100534.22;;;17.94;54.22
5651;BME280;40241;52.684;9.758;2022-11-15T15:07:54;100535.06;;;17.81;54.47
5651;BME280;40241;52.684;9.758;2022-11-15T15:10:20;100531.06;;;17.69;54.44
5651;BME280;40241;52.684;9.758;2022-11-15T15:12:46;100531.56;;;17.60;54.70
5651;BME280;40241;52.684;9.758;2022-11-15T15:15:16;100523.72;;;17.51;54.87
5651;BME280;40241;52.684;9.758;2022-11-15T15:17:43;100523.59;;;17.44;54.88